logo tempoitalia

Diretta Meteo Bishkek-Manas Int. Airport, Kyrgyzstanlunedì 31 agosto ore 11:00

Mappa
Sereno 32 °C Sereno 24 Ore: T.min 20 T.max 33
Ponente Nord Km/h 7.2 Punto di rugiada: 10 °C Umidità: 25% Visibilità: 10 Km
Il sole sorge alle: 06:25 Il sole tramonta alle: 19:39
31 Agosto 2026 11:00 tempo osservato: Sereno Sereno 32 25 1007 vento: Nord N 7.2
31 Agosto 2026 10:30 tempo osservato: Sereno Sereno 31 27 1007 vento: Nord E 10.8
31 Agosto 2026 10:00 tempo osservato: Sereno Sereno 29 30 1008 vento: Nord N 3.6
31 Agosto 2026 09:30 tempo osservato: Sereno Sereno 28 30 1007 vento: Nord N 7.2
31 Agosto 2026 09:00 tempo osservato: Sereno Sereno 27 36 1008 vento: Nord N 7.2
31 Agosto 2026 08:30 tempo osservato: Sereno Sereno 24 43 1008 vento: Nord N 3.6
31 Agosto 2026 08:00 tempo osservato: Sereno Sereno 22 53 1008 vento: Nord N 7.2
31 Agosto 2026 07:30 tempo osservato: Sereno Sereno 21 52 1008 vento: Nord N 7.2
31 Agosto 2026 07:00 tempo osservato: Sereno Sereno 21 46 1008 vento: Nord N 7.2
31 Agosto 2026 06:30 tempo osservato: Sereno Sereno 22 43 1008 vento: Nord S/SO 14.4
31 Agosto 2026 06:00 tempo osservato: Sereno Sereno 20 49 1008 vento: Nord SE 10.8
31 Agosto 2026 05:30 tempo osservato: Sereno Sereno 23 38 1008 vento: Nord N 7.2
31 Agosto 2026 05:00 tempo osservato: Sereno Sereno 22 43 1008 vento: Nord E/SE 10.8
31 Agosto 2026 04:30 tempo osservato: Sereno Sereno 23 38 1008 vento: Nord E/SE 10.8
31 Agosto 2026 04:00 tempo osservato: Sereno Sereno 24 35 1008 vento: Nord E 14.4
31 Agosto 2026 03:30 tempo osservato: Sereno Sereno 24 35 1008 vento: Nord E 18
31 Agosto 2026 03:00 tempo osservato: Sereno Sereno 24 35 1008 vento: Nord E 18
31 Agosto 2026 02:30 tempo osservato: Sereno Sereno 25 33 1008 vento: Nord E/SE 21.6
31 Agosto 2026 02:00 tempo osservato: Sereno Sereno 25 33 1009 vento: Nord E/SE 25.2
31 Agosto 2026 01:30 tempo osservato: Sereno Sereno 25 36 1009 vento: Nord E 18
31 Agosto 2026 01:00 tempo osservato: Sereno Sereno 24 41 1009 vento: Nord E/NE 10.8
31 Agosto 2026 00:30 tempo osservato: Sereno Sereno 26 36 1010 vento: Nord E/SE 18
31 Agosto 2026 00:00 tempo osservato: Sereno Sereno 25 41 1010 vento: Nord NE 14.4
30 Agosto 2026 23:30 tempo osservato: Sereno Sereno 25 44 1010 vento: Nord E 14.4
30 Agosto 2026 23:00 tempo osservato: Sereno Sereno 26 41 1010 vento: Nord S/SE 10.8
30 Agosto 2026 22:30 tempo osservato: Sereno Sereno 27 34 1010 vento: Nord S/SE 10.8
30 Agosto 2026 22:00 tempo osservato: Sereno Sereno 28 32 1011 vento: Nord S/SE 10.8
30 Agosto 2026 21:30 tempo osservato: Sereno Sereno 28 32 1011 vento: Nord N 7.2
30 Agosto 2026 21:00 tempo osservato: Sereno Sereno 29 28 1011 vento: Nord N 7.2
30 Agosto 2026 20:30 tempo osservato: Sereno Sereno 29 28 1011 vento: Nord N 7.2
30 Agosto 2026 20:00 tempo osservato: Sereno Sereno 31 25 1011 vento: Nord N 7.2
30 Agosto 2026 19:30 tempo osservato: Sereno Sereno 32 21 1011 vento: Nord N 7.2
30 Agosto 2026 19:00 tempo osservato: Sereno Sereno 33 18 1011 vento: Nord N 3.6
30 Agosto 2026 18:30 tempo osservato: Sereno Sereno 33 18 1011 vento: Nord O/NO 10.8
30 Agosto 2026 18:00 tempo osservato: Sereno Sereno 33 18 1011 vento: Nord O 10.8
30 Agosto 2026 17:30 tempo osservato: Sereno Sereno 33 18 1011 vento: Nord N/NE 10.8
30 Agosto 2026 17:00 tempo osservato: Sereno Sereno 33 18 1011 vento: Nord N 7.2
30 Agosto 2026 16:30 tempo osservato: Sereno Sereno 33 18 1011 vento: Nord NO 10.8
30 Agosto 2026 16:00 tempo osservato: Sereno Sereno 33 19 1011 vento: Nord O 14.4
30 Agosto 2026 15:30 tempo osservato: Sereno Sereno 33 18 1011 vento: Nord SO 10.8
30 Agosto 2026 15:00 tempo osservato: Sereno Sereno 33 19 1011 vento: Nord S 10.8
30 Agosto 2026 14:30 tempo osservato: Sereno Sereno 33 19 1011 vento: Nord SO 10.8
30 Agosto 2026 14:00 tempo osservato: Sereno Sereno 32 21 1011 vento: Nord SO 10.8
30 Agosto 2026 13:30 tempo osservato: Sereno Sereno 32 22 1011 vento: Nord N 7.2
30 Agosto 2026 13:00 tempo osservato: Sereno Sereno 31 23 1012 vento: Nord NO 10.8
30 Agosto 2026 12:30 tempo osservato: Sereno Sereno 31 23 1012 vento: Nord N 7.2
30 Agosto 2026 12:00 tempo osservato: Sereno Sereno 30 23 1012 vento: Nord N/NO 10.8